createdAt,value
2023-02-03T00:00:33.759Z,9.77
2023-02-03T00:03:39.677Z,17.55
2023-02-03T00:06:46.982Z,47.51
2023-02-03T00:09:53.168Z,49.19
2023-02-03T00:13:02.455Z,20.24
2023-02-03T00:16:09.572Z,15.26
2023-02-03T00:19:17.634Z,12.73
2023-02-03T00:22:23.783Z,10.66
2023-02-03T00:25:30.380Z,11.56
2023-02-03T00:28:39.207Z,8.71
2023-02-03T00:31:46.003Z,8.48
2023-02-03T00:34:51.965Z,8.58
2023-02-03T00:38:00.582Z,8.17
2023-02-03T00:41:06.469Z,8.84
2023-02-03T00:44:17.083Z,7.93
2023-02-03T00:47:22.870Z,8.17
2023-02-03T00:50:30.281Z,7.60
2023-02-03T00:53:36.986Z,7.80
2023-02-03T00:56:43.861Z,7.42
2023-02-03T00:59:54.449Z,6.49
2023-02-03T01:03:01.142Z,6.80
2023-02-03T01:06:17.468Z,7.25
2023-02-03T01:09:24.048Z,7.26
2023-02-03T01:12:32.478Z,7.89
2023-02-03T01:15:48.127Z,7.51
2023-02-03T01:18:55.034Z,8.42
2023-02-03T01:22:03.869Z,7.74
2023-02-03T01:25:11.675Z,7.45
2023-02-03T01:28:18.365Z,7.40
2023-02-03T01:31:30.762Z,8.16
2023-02-03T01:34:37.561Z,8.20
2023-02-03T01:37:45.075Z,7.09
2023-02-03T01:40:51.668Z,7.30
2023-02-03T01:44:00.335Z,7.68
2023-02-03T01:47:27.516Z,7.27
2023-02-03T01:50:38.976Z,7.37
2023-02-03T01:53:46.052Z,7.94
2023-02-03T01:56:59.673Z,7.84
2023-02-03T02:00:12.549Z,8.54
2023-02-03T02:03:34.281Z,9.51
2023-02-03T02:06:41.249Z,8.37
2023-02-03T02:09:52.241Z,8.16
2023-02-03T02:13:02.523Z,7.98
2023-02-03T02:16:19.949Z,8.13
2023-02-03T02:20:28.113Z,7.74
2023-02-03T02:24:29.843Z,8.33
2023-02-03T02:28:39.542Z,8.68
2023-02-03T02:32:12.837Z,8.05
2023-02-03T02:35:38.276Z,7.81
2023-02-03T02:39:05.247Z,7.84
2023-02-03T02:42:26.900Z,7.93
2023-02-03T02:45:47.253Z,7.19
2023-02-03T02:49:06.112Z,7.13
2023-02-03T02:52:18.904Z,7.33
2023-02-03T02:55:34.104Z,7.65
2023-02-03T02:58:50.340Z,7.88
2023-02-03T03:01:56.216Z,8.06
2023-02-03T03:05:15.899Z,8.06
2023-02-03T03:08:35.881Z,8.37
2023-02-03T03:11:53.915Z,8.50
2023-02-03T03:15:09.692Z,8.57
2023-02-03T03:18:26.474Z,8.18
2023-02-03T03:21:43.963Z,8.92
2023-02-03T03:25:00.865Z,8.57
2023-02-03T03:28:16.604Z,7.69
2023-02-03T03:31:24.557Z,8.01
2023-02-03T03:34:32.412Z,8.08
2023-02-03T03:37:51.979Z,7.08
2023-02-03T03:41:08.798Z,7.66
2023-02-03T03:44:21.769Z,8.31
2023-02-03T03:47:37.099Z,7.02
2023-02-03T03:50:52.715Z,7.46
2023-02-03T03:54:10.417Z,8.02
2023-02-03T03:57:25.857Z,9.68
2023-02-03T04:00:39.120Z,12.62
2023-02-03T04:03:53.189Z,12.16
2023-02-03T04:06:59.620Z,11.30
2023-02-03T04:10:24.934Z,10.79
2023-02-03T04:13:31.164Z,12.51
2023-02-03T04:16:37.741Z,12.68
2023-02-03T04:19:43.510Z,12.16
2023-02-03T04:22:50.169Z,12.50
2023-02-03T04:25:58.664Z,14.11
2023-02-03T04:29:05.799Z,15.31
2023-02-03T04:32:11.564Z,15.86
2023-02-03T04:35:18.306Z,19.22
2023-02-03T04:38:24.157Z,19.24
2023-02-03T04:41:33.470Z,19.71
2023-02-03T04:44:39.176Z,25.02
2023-02-03T04:47:45.937Z,24.90
2023-02-03T04:50:51.684Z,37.20
2023-02-03T04:53:58.454Z,23.16
2023-02-03T04:57:08.066Z,22.97
2023-02-03T05:00:17.140Z,18.11
2023-02-03T05:03:25.006Z,21.14
2023-02-03T05:06:33.480Z,32.81
2023-02-03T05:09:39.192Z,29.40
2023-02-03T05:12:48.487Z,37.73
2023-02-03T05:15:54.312Z,36.11
2023-02-03T05:19:00.946Z,39.45
2023-02-03T05:22:06.716Z,34.61
2023-02-03T05:25:13.956Z,45.94
2023-02-03T05:28:22.332Z,28.72
2023-02-03T05:31:29.093Z,26.73
2023-02-03T05:34:34.983Z,32.82
2023-02-03T05:37:41.603Z,37.82
2023-02-03T05:40:59.880Z,28.08
2023-02-03T05:44:09.189Z,22.54
2023-02-03T05:47:14.999Z,39.19
2023-02-03T05:50:23.030Z,27.44
2023-02-03T05:53:31.023Z,27.11
2023-02-03T05:56:38.908Z,23.65
2023-02-03T05:59:47.444Z,19.22
2023-02-03T06:02:59.159Z,19.36
2023-02-03T06:06:05.021Z,23.60
2023-02-03T06:09:12.757Z,16.02
2023-02-03T06:12:20.079Z,16.31
2023-02-03T06:15:29.367Z,19.51
2023-02-03T06:18:35.228Z,16.71
2023-02-03T06:21:41.871Z,17.76
2023-02-03T06:24:48.409Z,15.71
2023-02-03T06:27:55.212Z,22.23
2023-02-03T06:31:03.957Z,23.41
2023-02-03T06:34:10.704Z,19.01
2023-02-03T06:37:16.566Z,15.66
2023-02-03T06:40:23.747Z,16.43
2023-02-03T06:43:29.596Z,13.90
2023-02-03T06:46:38.845Z,20.86
2023-02-03T06:49:44.610Z,16.67
2023-02-03T06:52:53.797Z,14.37
2023-02-03T06:56:02.255Z,17.46
2023-02-03T06:59:09.235Z,18.30
2023-02-03T07:02:17.728Z,22.86
2023-02-03T07:05:24.884Z,18.99
2023-02-03T07:08:30.706Z,19.70
2023-02-03T07:11:37.296Z,18.64
2023-02-03T07:14:43.115Z,35.38
2023-02-03T07:17:55.046Z,53.07
2023-02-03T07:21:00.999Z,31.29
2023-02-03T07:24:08.447Z,37.99
2023-02-03T07:27:14.209Z,24.77
2023-02-03T07:30:21.132Z,12.59
2023-02-03T07:33:29.717Z,25.49
2023-02-03T07:36:36.634Z,16.99
2023-02-03T07:39:44.335Z,13.35
2023-02-03T07:42:53.022Z,14.48
2023-02-03T07:45:58.914Z,15.46
2023-02-03T07:49:08.085Z,16.84
2023-02-03T07:52:13.846Z,16.27
2023-02-03T07:55:20.829Z,21.32
2023-02-03T07:58:26.555Z,16.63
2023-02-03T08:01:34.300Z,16.12
2023-02-03T08:04:42.812Z,15.38
2023-02-03T08:07:49.822Z,15.80
2023-02-03T08:10:57.793Z,15.46
2023-02-03T08:14:04.333Z,17.09
2023-02-03T08:17:10.095Z,15.99
2023-02-03T08:20:20.178Z,15.72
2023-02-03T08:23:25.971Z,15.78
2023-02-03T08:26:32.613Z,16.47
2023-02-03T08:29:38.453Z,17.42
2023-02-03T08:32:45.053Z,17.25
2023-02-03T08:35:54.232Z,15.81
2023-02-03T08:39:01.022Z,16.13
2023-02-03T08:42:07.978Z,17.59
2023-02-03T08:45:15.053Z,18.58
2023-02-03T08:48:20.810Z,18.48
2023-02-03T08:51:30.389Z,19.59
2023-02-03T08:54:36.912Z,19.88
2023-02-03T08:57:44.915Z,18.58
2023-02-03T09:00:53.369Z,17.92
2023-02-03T09:04:02.170Z,16.65
2023-02-03T09:07:11.262Z,16.46
2023-02-03T09:10:17.956Z,17.94
2023-02-03T09:13:23.910Z,35.59
2023-02-03T09:16:31.248Z,28.50
2023-02-03T09:19:37.369Z,25.73
2023-02-03T09:22:46.753Z,21.45
2023-02-03T09:25:52.791Z,24.14
2023-02-03T09:28:59.611Z,29.09
2023-02-03T09:32:09.107Z,25.99
2023-02-03T09:35:15.945Z,28.69
2023-02-03T09:38:24.724Z,33.01
2023-02-03T09:42:29.103Z,32.29
2023-02-03T09:45:36.111Z,25.35
2023-02-03T09:48:53.038Z,27.12
2023-02-03T09:52:10.863Z,34.48
2023-02-03T09:55:36.748Z,25.13
2023-02-03T09:58:42.719Z,29.98
2023-02-03T10:02:03.181Z,40.21
2023-02-03T10:05:28.779Z,40.41
2023-02-03T10:09:12.526Z,21.33
2023-02-03T10:13:03.220Z,25.03
2023-02-03T10:16:51.901Z,28.99
2023-02-03T10:20:08.747Z,28.33
2023-02-03T10:23:24.162Z,30.41
2023-02-03T10:26:33.345Z,33.68
2023-02-03T10:29:46.431Z,21.56
2023-02-03T10:32:57.160Z,26.37
2023-02-03T10:36:21.276Z,28.32
2023-02-03T10:39:39.678Z,23.59
2023-02-03T10:43:02.856Z,28.15
2023-02-03T10:46:11.504Z,28.73
2023-02-03T10:49:19.737Z,28.19
2023-02-03T10:52:34.202Z,24.60
2023-02-03T10:55:40.940Z,27.97
2023-02-03T10:58:53.951Z,25.60
2023-02-03T11:02:03.569Z,21.96
2023-02-03T11:05:25.122Z,21.40
2023-02-03T11:08:35.121Z,25.09
2023-02-03T11:11:42.116Z,19.47
2023-02-03T11:14:52.576Z,23.39
2023-02-03T11:18:00.977Z,20.16
2023-02-03T11:21:16.393Z,42.43
2023-02-03T11:24:27.316Z,27.56
2023-02-03T11:27:36.868Z,51.24
2023-02-03T11:30:42.896Z,64.04
2023-02-03T11:34:01.652Z,41.36
2023-02-03T11:37:35.203Z,28.16
2023-02-03T11:40:41.885Z,54.94
2023-02-03T11:43:48.834Z,83.58
2023-02-03T11:47:03.366Z,61.26
2023-02-03T11:50:33.587Z,24.67
2023-02-03T11:54:02.287Z,21.41
2023-02-03T11:57:38.289Z,16.81
2023-02-03T12:00:59.938Z,17.91
2023-02-03T12:04:32.696Z,18.29
2023-02-03T12:08:18.209Z,18.44
2023-02-03T12:11:48.522Z,40.71
2023-02-03T12:15:20.216Z,22.73
2023-02-03T12:18:51.138Z,24.13
2023-02-03T12:22:16.063Z,19.06
2023-02-03T12:25:42.688Z,19.53
2023-02-03T12:29:02.964Z,20.61
2023-02-03T12:32:22.898Z,20.12
2023-02-03T12:35:39.655Z,18.60
2023-02-03T12:38:59.185Z,17.32
2023-02-03T12:42:22.900Z,16.35
2023-02-03T12:45:37.205Z,16.69
2023-02-03T12:48:59.342Z,14.82
2023-02-03T12:52:22.543Z,13.42
2023-02-03T12:55:40.363Z,13.18
2023-02-03T12:58:58.980Z,13.52
2023-02-03T13:02:26.989Z,14.07
2023-02-03T13:05:52.416Z,13.49
2023-02-03T13:09:17.992Z,14.23
2023-02-03T13:12:36.657Z,13.66
2023-02-03T13:15:52.813Z,17.30
2023-02-03T13:19:10.033Z,28.15
2023-02-03T13:22:19.559Z,15.25
2023-02-03T13:25:40.514Z,14.64
2023-02-03T13:29:23.486Z,13.98
2023-02-03T13:33:09.448Z,12.22
2023-02-03T13:36:50.142Z,12.66
2023-02-03T13:40:36.223Z,13.41
2023-02-03T13:43:52.328Z,13.66
2023-02-03T13:47:02.920Z,15.58
2023-02-03T13:50:26.034Z,13.49
2023-02-03T13:53:39.292Z,13.34
2023-02-03T13:56:56.322Z,14.41
2023-02-03T14:00:02.335Z,12.04
2023-02-03T14:03:21.932Z,13.06
2023-02-03T14:07:02.983Z,13.58
2023-02-03T14:10:26.493Z,11.78
2023-02-03T14:13:32.495Z,13.25
2023-02-03T14:16:41.589Z,11.61
2023-02-03T14:19:58.630Z,11.04
2023-02-03T14:23:18.701Z,11.75
2023-02-03T14:26:46.210Z,13.48
2023-02-03T14:30:11.335Z,12.90
2023-02-03T14:33:17.228Z,12.83
2023-02-03T14:36:36.684Z,13.36
2023-02-03T14:40:34.221Z,13.90
2023-02-03T14:44:01.645Z,17.02
2023-02-03T14:47:37.573Z,18.19
2023-02-03T14:51:08.380Z,22.99
2023-02-03T14:54:41.122Z,20.78
2023-02-03T14:58:05.943Z,20.00
2023-02-03T15:01:50.965Z,24.69
2023-02-03T15:05:40.542Z,19.84
2023-02-03T15:08:55.137Z,20.05
2023-02-03T15:12:08.638Z,24.83
2023-02-03T15:15:43.656Z,24.68
2023-02-03T15:18:57.352Z,20.22
2023-02-03T15:22:04.637Z,18.30
2023-02-03T15:25:25.783Z,20.24
2023-02-03T15:28:39.302Z,18.73
2023-02-03T15:31:57.655Z,20.20
2023-02-03T15:35:12.337Z,21.71
2023-02-03T15:38:32.387Z,20.73
2023-02-03T15:41:39.391Z,20.40
2023-02-03T15:44:58.718Z,21.95
2023-02-03T15:48:30.867Z,31.75
2023-02-03T15:51:52.058Z,97.28
2023-02-03T15:55:15.410Z,35.47
2023-02-03T15:58:34.119Z,28.32
2023-02-03T16:01:40.326Z,27.81
2023-02-03T16:04:50.807Z,90.35
2023-02-03T16:07:56.974Z,80.62
2023-02-03T16:11:07.852Z,44.48
2023-02-03T16:14:34.205Z,100.97
2023-02-03T16:17:44.502Z,111.41
2023-02-03T16:20:55.937Z,105.90
2023-02-03T16:24:29.099Z,110.14
2023-02-03T16:27:37.009Z,95.90
2023-02-03T16:31:15.122Z,92.19
2023-02-03T16:34:35.149Z,33.22
2023-02-03T16:38:01.072Z,28.48
2023-02-03T16:41:33.315Z,21.52
2023-02-03T16:44:52.302Z,36.19
2023-02-03T16:48:10.429Z,18.32
2023-02-03T16:51:21.300Z,25.53
2023-02-03T16:54:32.707Z,24.16
2023-02-03T16:57:41.414Z,21.25
2023-02-03T17:00:50.496Z,18.79
2023-02-03T17:03:57.360Z,15.63
2023-02-03T17:07:06.719Z,16.34
2023-02-03T17:10:17.229Z,17.47
2023-02-03T17:13:25.763Z,15.22
2023-02-03T17:16:34.811Z,12.18
2023-02-03T17:19:57.162Z,13.95
2023-02-03T17:23:04.149Z,14.40
2023-02-03T17:26:15.761Z,11.14
2023-02-03T17:29:22.564Z,15.89
2023-02-03T17:32:28.640Z,34.90
2023-02-03T17:35:35.247Z,31.02
2023-02-03T17:55:32.510Z,17.77
2023-02-03T17:58:44.650Z,15.22
2023-02-03T18:01:51.389Z,17.43
2023-02-03T18:04:57.534Z,20.56
2023-02-03T18:08:09.242Z,19.62
2023-02-03T18:11:24.662Z,23.31
2023-02-03T18:14:33.804Z,24.45
2023-02-03T18:17:39.867Z,23.53
2023-02-03T18:20:48.096Z,19.73
2023-02-03T18:23:59.441Z,21.62
2023-02-03T18:27:08.639Z,21.73
2023-02-03T18:30:20.373Z,27.22
2023-02-03T18:33:27.498Z,22.53
2023-02-03T18:36:33.701Z,25.44
2023-02-03T18:39:40.642Z,36.41
2023-02-03T18:42:46.436Z,41.79
2023-02-03T18:45:58.088Z,34.31
2023-02-03T18:49:03.988Z,24.52
2023-02-03T18:52:11.581Z,33.27
2023-02-03T18:55:19.067Z,36.08
2023-02-03T18:58:30.901Z,33.73
2023-02-03T19:01:41.566Z,31.57
2023-02-03T19:04:48.683Z,34.02
2023-02-03T19:07:54.469Z,64.29
2023-02-03T19:11:01.029Z,65.90
2023-02-03T19:14:07.322Z,50.61
2023-02-03T19:17:17.032Z,51.92
2023-02-03T19:20:23.590Z,49.34
2023-02-03T19:23:30.423Z,44.77
2023-02-03T19:26:36.209Z,63.16
2023-02-03T19:29:44.646Z,58.32
2023-02-03T19:32:53.145Z,95.70
2023-02-03T19:36:01.077Z,66.33
2023-02-03T19:39:08.760Z,66.28
2023-02-03T19:42:15.570Z,98.35
2023-02-03T19:45:21.622Z,82.26
2023-02-03T19:48:30.848Z,116.80
2023-02-03T19:51:37.143Z,147.57
2023-02-03T19:54:43.883Z,47.19
2023-02-03T19:57:50.022Z,23.88
2023-02-03T20:00:57.562Z,22.96
2023-02-03T20:04:07.618Z,29.45
2023-02-03T20:07:15.372Z,25.42
2023-02-03T20:10:21.738Z,19.27
2023-02-03T20:13:28.452Z,19.33
2023-02-03T20:16:34.248Z,29.78
2023-02-03T20:19:43.709Z,29.57
2023-02-03T20:22:49.516Z,42.94
2023-02-03T20:25:57.701Z,30.15
2023-02-03T20:29:06.643Z,22.41
2023-02-03T20:32:13.964Z,17.55
2023-02-03T20:35:24.066Z,17.10
2023-02-03T20:38:31.322Z,15.50
2023-02-03T20:41:37.034Z,20.44
2023-02-03T20:44:43.905Z,14.63
2023-02-03T20:47:51.804Z,16.94
2023-02-03T20:51:01.509Z,18.05
2023-02-03T20:54:20.197Z,16.00
2023-02-03T20:57:26.775Z,16.73
2023-02-03T21:00:33.105Z,14.66
2023-02-03T21:03:52.289Z,13.15
2023-02-03T21:07:01.084Z,12.40
2023-02-03T21:10:24.916Z,12.71
2023-02-03T21:13:38.761Z,13.63
2023-02-03T21:16:47.988Z,15.54
2023-02-03T21:19:55.798Z,15.56
2023-02-03T21:23:05.053Z,14.18
2023-02-03T21:26:22.155Z,14.07
2023-02-03T21:29:36.962Z,15.31
2023-02-03T21:32:44.438Z,16.15
2023-02-03T21:35:55.074Z,16.56
2023-02-03T21:39:04.159Z,15.97
2023-02-03T21:42:45.714Z,15.41
2023-02-03T21:45:57.105Z,12.25
2023-02-03T21:49:06.903Z,11.47
2023-02-03T21:52:16.937Z,11.66
2023-02-03T21:55:26.349Z,12.89
2023-02-03T21:58:37.654Z,12.53
2023-02-03T22:01:44.358Z,11.19
2023-02-03T22:04:50.127Z,12.12
2023-02-03T22:07:57.396Z,12.49
2023-02-03T22:11:06.104Z,12.53
2023-02-03T22:14:13.249Z,10.62
2023-02-03T22:17:19.168Z,10.94
2023-02-03T22:20:25.771Z,10.80
2023-02-03T22:23:32.009Z,13.53
2023-02-03T22:26:41.346Z,15.93
2023-02-03T22:29:47.310Z,10.35
2023-02-03T22:32:53.924Z,9.79
2023-02-03T22:35:59.742Z,9.65
2023-02-03T22:39:08.278Z,10.58
2023-02-03T22:42:17.734Z,9.62
2023-02-03T22:45:24.363Z,10.20
2023-02-03T22:48:30.623Z,9.66
2023-02-03T22:51:37.342Z,10.55
2023-02-03T22:54:43.214Z,11.02
2023-02-03T22:57:52.875Z,10.99
2023-02-03T23:00:58.679Z,10.86
2023-02-03T23:04:05.251Z,10.82
2023-02-03T23:07:11.261Z,10.40
2023-02-03T23:10:25.360Z,9.92
2023-02-03T23:13:33.744Z,9.67
2023-02-03T23:16:40.400Z,10.10
2023-02-03T23:19:46.424Z,10.36
2023-02-03T23:22:53.361Z,10.15
2023-02-03T23:26:00.728Z,11.13
2023-02-03T23:29:09.924Z,10.81
2023-02-03T23:32:15.691Z,11.01
2023-02-03T23:35:34.656Z,12.16
2023-02-03T23:38:40.584Z,11.89
2023-02-03T23:41:47.397Z,9.21
2023-02-03T23:44:57.240Z,9.47
2023-02-03T23:48:04.286Z,10.27
2023-02-03T23:51:10.556Z,11.17
2023-02-03T23:54:17.177Z,10.09
2023-02-03T23:57:23.025Z,9.75
